Time;durP1;ratioP1;P1;durP2;ratioP2;P2;SDS_P1;SDS_P2;PMS_P1;PMS_P2;Temp;Humidity;BMP_temperature;BMP_pressure;BME280_temperature;BME280_humidity;BME280_pressure;Samples;Min_cycle;Max_cycle;Signal;HPM_P1;HPM_P2
2021/08/11 00:00:14;;;;;;;2.30;2.20;;;21.50;61.70;;;;;;5032933;28;20041;-85
2021/08/11 00:02:40;;;;;;;2.42;2.33;;;21.40;61.80;;;;;;5034707;28;20052;-85
2021/08/11 00:05:07;;;;;;;2.30;2.20;;;21.40;61.80;;;;;;5035552;28;20045;-85
2021/08/11 00:07:33;;;;;;;2.30;2.20;;;21.40;61.90;;;;;;5036038;28;20033;-85
2021/08/11 00:09:59;;;;;;;2.20;2.10;;;21.40;62.00;;;;;;5034804;28;20029;-84
2021/08/11 00:12:25;;;;;;;2.35;2.25;;;21.30;62.00;;;;;;5033524;28;20370;-85
2021/08/11 00:14:51;;;;;;;2.28;2.17;;;21.30;62.10;;;;;;5032259;28;20029;-86
2021/08/11 00:17:18;;;;;;;26.23;2.30;;;21.30;62.20;;;;;;5035669;28;20029;-85
2021/08/11 00:19:44;;;;;;;2.13;2.03;;;21.20;62.20;;;;;;5035837;28;20033;-85
2021/08/11 00:22:10;;;;;;;2.35;2.22;;;21.20;62.30;;;;;;5018050;28;20479;-84
2021/08/11 00:24:36;;;;;;;2.20;2.10;;;21.20;62.30;;;;;;5035699;28;20033;-85
2021/08/11 00:27:02;;;;;;;2.30;2.20;;;21.20;62.40;;;;;;5030347;28;20463;-86
2021/08/11 00:29:28;;;;;;;2.22;2.13;;;21.10;62.40;;;;;;5036824;28;20497;-84
2021/08/11 00:31:54;;;;;;;2.20;2.10;;;21.10;62.50;;;;;;5034756;28;20101;-84
2021/08/11 00:34:20;;;;;;;2.10;2.00;;;21.10;62.50;;;;;;5017532;28;20038;-85
2021/08/11 00:36:47;;;;;;;2.40;2.30;;;21.00;62.50;;;;;;5035631;28;20389;-84
2021/08/11 00:39:13;;;;;;;2.20;2.10;;;21.00;62.60;;;;;;5032966;28;20030;-85
2021/08/11 00:41:44;;;;;;;2.30;2.20;;;21.00;62.70;;;;;;5034266;28;20353;-85
2021/08/11 00:44:13;;;;;;;2.25;2.15;;;20.90;62.70;;;;;;5035494;28;20037;-85
2021/08/11 00:46:43;;;;;;;2.22;2.13;;;20.90;62.70;;;;;;5033611;28;20038;-83
2021/08/11 00:49:18;;;;;;;2.30;2.20;;;20.80;62.70;;;;;;5034184;28;20030;-85
2021/08/11 00:51:45;;;;;;;2.30;2.20;;;20.90;62.90;;;;;;5033699;28;20496;-85
2021/08/11 00:54:11;;;;;;;2.20;2.10;;;20.80;62.90;;;;;;5031228;28;20036;-83
2021/08/11 00:56:38;;;;;;;2.20;2.10;;;20.80;62.90;;;;;;5033285;28;20030;-85
2021/08/11 00:59:05;;;;;;;3.72;2.40;;;20.80;63.00;;;;;;5036032;28;20029;-85
2021/08/11 01:01:34;;;;;;;2.25;2.15;;;20.70;63.00;;;;;;5033363;28;20038;-83
2021/08/11 01:04:00;;;;;;;2.38;2.28;;;20.70;63.10;;;;;;5034086;28;20029;-84
2021/08/11 01:06:29;;;;;;;2.17;2.08;;;20.70;63.10;;;;;;5016864;28;20043;-85
2021/08/11 01:08:56;;;;;;;2.42;2.33;;;20.70;63.20;;;;;;5013806;28;20026;-85
2021/08/11 01:11:23;;;;;;;2.70;2.50;;;20.60;63.20;;;;;;5035924;28;20030;-85
2021/08/11 01:13:49;;;;;;;2.42;2.33;;;20.60;63.30;;;;;;5034209;28;20045;-85
2021/08/11 01:16:15;;;;;;;2.53;2.42;;;20.60;63.30;;;;;;5033254;28;20509;-86
2021/08/11 01:18:41;;;;;;;2.65;2.55;;;20.60;63.30;;;;;;5033892;28;20466;-85
2021/08/11 01:21:16;;;;;;;2.63;2.53;;;20.60;63.40;;;;;;5028778;28;20026;-85
2021/08/11 01:24:04;;;;;;;2.78;2.67;;;20.60;63.40;;;;;;5033201;28;20026;-85
2021/08/11 01:26:39;;;;;;;2.78;2.67;;;20.50;63.50;;;;;;5012743;28;20030;-86
2021/08/11 01:29:08;;;;;;;2.60;2.50;;;20.50;63.50;;;;;;5034138;28;20021;-85
2021/08/11 01:32:02;;;;;;;2.67;2.58;;;20.40;63.50;;;;;;5015402;28;20041;-85
2021/08/11 01:34:33;;;;;;;2.70;2.60;;;20.40;63.70;;;;;;5033241;28;20068;-85
2021/08/11 01:37:02;;;;;;;2.67;2.58;;;20.40;63.70;;;;;;5034763;28;20029;-85
2021/08/11 01:39:57;;;;;;;2.42;2.33;;;20.30;63.60;;;;;;5016955;28;20017;-85
2021/08/11 01:42:30;;;;;;;2.60;2.50;;;20.30;63.80;;;;;;5014586;28;20045;-85
2021/08/11 01:45:12;;;;;;;2.38;2.28;;;20.30;63.80;;;;;;5017323;28;20053;-86
2021/08/11 01:47:53;;;;;;;2.50;2.40;;;20.30;63.90;;;;;;5050469;28;20044;-85
2021/08/11 01:50:20;;;;;;;2.50;2.40;;;20.20;63.90;;;;;;5054827;28;20513;-84
2021/08/11 01:52:47;;;;;;;2.30;2.20;;;20.20;64.00;;;;;;5038732;28;20033;-85
2021/08/11 01:55:13;;;;;;;2.42;2.33;;;20.10;64.00;;;;;;5036687;28;20040;-85
2021/08/11 01:57:49;;;;;;;2.42;2.33;;;20.10;64.10;;;;;;5038163;28;20032;-84
2021/08/11 02:00:16;;;;;;;2.53;2.42;;;20.10;64.20;;;;;;5017725;28;20033;-85
2021/08/11 02:02:42;;;;;;;2.90;2.47;;;20.10;64.30;;;;;;5026928;28;20366;-79
2021/08/11 02:05:09;;;;;;;2.35;2.25;;;20.00;64.20;;;;;;5024975;28;20033;-84
2021/08/11 02:07:35;;;;;;;2.58;2.30;;;20.00;64.30;;;;;;5047582;28;20037;-84
2021/08/11 02:10:01;;;;;;;2.63;2.53;;;20.00;64.40;;;;;;5030683;28;20398;-85
2021/08/11 02:12:28;;;;;;;2.38;2.28;;;19.90;64.40;;;;;;5028983;28;20033;-85
2021/08/11 02:14:54;;;;;;;2.50;2.40;;;19.90;64.40;;;;;;5029947;28;20026;-85
2021/08/11 02:17:20;;;;;;;2.58;2.47;;;19.90;64.50;;;;;;5032877;28;20029;-85
2021/08/11 02:19:47;;;;;;;2.30;2.20;;;19.90;64.60;;;;;;5028770;28;20045;-85
2021/08/11 02:22:13;;;;;;;2.40;2.30;;;19.80;64.60;;;;;;5030065;28;20030;-85
2021/08/11 02:24:39;;;;;;;2.55;2.45;;;19.80;64.70;;;;;;5030335;28;20109;-85
2021/08/11 02:27:27;;;;;;;2.50;2.40;;;19.80;64.70;;;;;;5028692;28;20042;-83
2021/08/11 02:30:13;;;;;;;2.28;2.17;;;19.80;64.90;;;;;;5031334;28;20037;-85
2021/08/11 02:33:09;;;;;;;2.45;2.35;;;19.70;64.80;;;;;;5027969;28;20025;-84
2021/08/11 02:35:54;;;;;;;2.40;2.30;;;19.70;64.80;;;;;;5031305;28;20056;-84
2021/08/11 02:38:36;;;;;;;2.45;2.35;;;19.70;64.90;;;;;;5047833;28;20029;-85
2021/08/11 02:41:05;;;;;;;2.40;2.30;;;19.70;65.00;;;;;;5020707;28;20034;-85
2021/08/11 02:43:44;;;;;;;2.40;2.30;;;19.70;65.10;;;;;;5036464;28;20033;-85
2021/08/11 02:46:25;;;;;;;2.20;2.10;;;19.60;65.10;;;;;;5037058;28;20042;-85
2021/08/11 02:49:02;;;;;;;2.67;2.58;;;19.60;65.10;;;;;;5020787;28;20009;-85
2021/08/11 02:51:30;;;;;;;2.33;2.22;;;19.60;65.10;;;;;;5035209;28;20040;-85
2021/08/11 02:54:13;;;;;;;2.30;2.20;;;19.50;65.10;;;;;;5015602;28;20021;-85
2021/08/11 02:56:43;;;;;;;2.47;2.38;;;19.50;65.20;;;;;;5047631;28;20410;-85
2021/08/11 02:59:11;;;;;;;2.22;2.13;;;19.50;65.30;;;;;;5035398;28;20041;-86
2021/08/11 03:01:37;;;;;;;3.25;2.50;;;19.50;65.30;;;;;;5019304;28;20034;-85
2021/08/11 03:04:03;;;;;;;2.30;2.20;;;19.50;65.40;;;;;;5036152;28;20017;-85
2021/08/11 03:06:29;;;;;;;2.60;2.50;;;19.50;65.40;;;;;;5019089;28;20045;-84
2021/08/11 03:08:56;;;;;;;2.40;2.30;;;19.40;65.40;;;;;;5033110;28;20470;-85
2021/08/11 03:11:22;;;;;;;2.35;2.25;;;19.40;65.50;;;;;;5037698;28;20391;-85
2021/08/11 03:13:48;;;;;;;2.38;2.28;;;19.40;65.50;;;;;;5018179;28;20034;-83
2021/08/11 03:16:14;;;;;;;2.60;2.50;;;19.40;65.50;;;;;;5017668;28;20033;-86
2021/08/11 03:18:40;;;;;;;2.40;2.30;;;19.30;65.50;;;;;;5019529;28;20092;-86
2021/08/11 03:21:06;;;;;;;2.78;2.60;;;19.30;65.60;;;;;;5015888;28;20103;-85
2021/08/11 03:23:32;;;;;;;2.10;2.00;;;19.30;65.60;;;;;;5037346;28;20041;-85
2021/08/11 03:25:58;;;;;;;2.55;2.40;;;19.30;65.70;;;;;;5035270;28;20060;-85
2021/08/11 03:28:25;;;;;;;2.20;2.10;;;19.30;65.80;;;;;;5034196;28;20033;-85
2021/08/11 03:30:51;;;;;;;2.20;2.10;;;19.20;65.70;;;;;;5020404;28;20044;-86
2021/08/11 03:33:17;;;;;;;2.25;2.15;;;19.20;65.80;;;;;;5048057;28;20037;-85
2021/08/11 03:35:43;;;;;;;2.17;2.08;;;19.20;65.80;;;;;;5034771;28;20022;-86
2021/08/11 03:38:09;;;;;;;2.25;2.15;;;19.10;65.90;;;;;;5051033;28;20048;-85
2021/08/11 03:40:35;;;;;;;2.55;2.45;;;19.10;65.90;;;;;;5035434;28;20033;-86
2021/08/11 03:43:01;;;;;;;2.40;2.30;;;19.10;65.90;;;;;;5036564;28;20360;-84
2021/08/11 03:45:27;;;;;;;2.80;2.60;;;19.10;66.00;;;;;;5035320;28;20045;-85
2021/08/11 03:47:55;;;;;;;2.40;2.30;;;19.00;66.00;;;;;;5033051;28;20036;-85
2021/08/11 03:50:24;;;;;;;2.55;2.45;;;19.00;66.00;;;;;;5037871;28;20069;-86
2021/08/11 03:52:50;;;;;;;2.40;2.30;;;19.00;66.00;;;;;;5035741;28;20483;-85
2021/08/11 03:55:17;;;;;;;2.70;2.50;;;19.00;66.10;;;;;;5034232;28;20033;-86
2021/08/11 03:57:43;;;;;;;2.30;2.20;;;19.00;66.20;;;;;;5035562;28;20025;-84
2021/08/11 04:00:10;;;;;;;2.25;2.15;;;19.00;66.20;;;;;;5032608;28;20030;-85
2021/08/11 04:02:36;;;;;;;2.30;2.20;;;18.90;66.20;;;;;;5018741;28;20032;-85
2021/08/11 04:05:06;;;;;;;5.22;2.45;;;18.90;66.20;;;;;;5034719;28;20025;-86
2021/08/11 04:07:32;;;;;;;2.10;2.00;;;18.90;66.30;;;;;;5016712;28;20037;-85
2021/08/11 04:09:58;;;;;;;2.05;1.95;;;18.90;66.30;;;;;;5034895;28;20036;-85
2021/08/11 04:12:25;;;;;;;2.38;2.28;;;18.90;66.30;;;;;;5034869;28;20473;-86
2021/08/11 04:14:51;;;;;;;2.63;2.40;;;18.90;66.30;;;;;;5032484;28;20046;-85
2021/08/11 04:17:17;;;;;;;2.67;2.47;;;18.90;66.40;;;;;;5037664;28;20033;-85
2021/08/11 04:19:43;;;;;;;2.40;2.30;;;18.80;66.40;;;;;;5035403;28;20478;-86
2021/08/11 04:22:09;;;;;;;2.20;2.10;;;18.80;66.40;;;;;;5035498;28;20026;-85
2021/08/11 04:24:35;;;;;;;2.30;2.20;;;18.80;66.40;;;;;;5035845;28;20029;-85
2021/08/11 04:27:01;;;;;;;2.95;2.20;;;18.80;66.50;;;;;;5031526;28;20034;-85
2021/08/11 04:29:27;;;;;;;2.03;1.92;;;18.80;66.50;;;;;;5037624;28;20025;-84
2021/08/11 04:31:53;;;;;;;2.50;2.35;;;18.80;66.60;;;;;;5035733;28;20044;-85
2021/08/11 04:34:19;;;;;;;2.30;2.20;;;18.80;66.60;;;;;;5031999;28;20041;-85
2021/08/11 04:36:46;;;;;;;2.40;2.20;;;18.80;66.70;;;;;;5043696;28;20029;-85
2021/08/11 04:39:12;;;;;;;2.08;1.98;;;18.80;66.60;;;;;;5031431;28;20026;-85
2021/08/11 04:41:38;;;;;;;2.10;2.00;;;18.80;66.70;;;;;;5035021;28;20036;-85
2021/08/11 04:44:06;;;;;;;2.15;2.05;;;18.80;66.70;;;;;;5035313;28;20060;-85
2021/08/11 04:46:32;;;;;;;2.20;2.10;;;18.70;66.70;;;;;;5033313;28;20041;-84
2021/08/11 04:48:59;;;;;;;2.00;1.90;;;18.70;66.70;;;;;;5034120;28;20394;-85
2021/08/11 04:51:25;;;;;;;2.30;2.20;;;18.70;66.70;;;;;;5034081;28;20043;-85
2021/08/11 04:53:51;;;;;;;2.05;1.95;;;18.70;66.80;;;;;;5031915;28;20022;-85
2021/08/11 04:56:18;;;;;;;2.28;2.17;;;18.70;66.80;;;;;;5036178;28;20025;-85
2021/08/11 04:58:45;;;;;;;2.40;2.30;;;18.70;66.90;;;;;;5035113;28;20033;-85
2021/08/11 05:01:11;;;;;;;2.20;2.10;;;18.70;66.90;;;;;;5033084;28;20458;-85
2021/08/11 05:03:37;;;;;;;2.20;2.10;;;18.70;67.00;;;;;;5034112;28;20033;-85
2021/08/11 05:06:04;;;;;;;2.10;2.00;;;18.70;67.10;;;;;;5030810;28;20029;-85
2021/08/11 05:08:30;;;;;;;2.35;2.15;;;18.60;67.00;;;;;;5019023;28;20101;-86
2021/08/11 05:10:56;;;;;;;2.03;1.92;;;18.60;67.10;;;;;;5033498;28;20064;-78
2021/08/11 05:13:22;;;;;;;2.25;2.15;;;18.60;67.10;;;;;;5033682;28;20044;-85
2021/08/11 05:15:48;;;;;;;4.90;2.20;;;18.60;67.10;;;;;;5034067;28;20032;-85
2021/08/11 05:18:14;;;;;;;2.05;1.95;;;18.60;67.20;;;;;;5032323;28;20034;-85
2021/08/11 05:20:40;;;;;;;2.10;2.00;;;18.60;67.20;;;;;;5033280;28;20026;-85
2021/08/11 05:23:07;;;;;;;2.00;1.90;;;18.60;67.20;;;;;;5049329;28;20072;-84
2021/08/11 05:25:33;;;;;;;3.70;2.35;;;18.60;67.20;;;;;;5032122;28;20025;-85
2021/08/11 05:27:59;;;;;;;2.30;2.20;;;18.60;67.20;;;;;;5017091;28;20398;-85
2021/08/11 05:30:25;;;;;;;2.20;2.10;;;18.70;67.30;;;;;;5033249;28;20044;-84
2021/08/11 05:32:51;;;;;;;2.10;2.00;;;18.80;67.10;;;;;;5031147;28;20056;-85
2021/08/11 05:35:17;;;;;;;2.40;2.30;;;18.90;66.80;;;;;;5036209;28;20044;-85
2021/08/11 05:37:43;;;;;;;2.33;2.22;;;19.10;66.50;;;;;;5033461;28;20033;-84
2021/08/11 05:40:11;;;;;;;2.72;2.63;;;19.20;66.40;;;;;;5033497;28;20034;-85
2021/08/11 05:42:37;;;;;;;3.13;2.92;;;19.20;66.20;;;;;;5034601;28;20037;-86
2021/08/11 05:45:04;;;;;;;2.85;2.75;;;19.20;66.20;;;;;;5029060;28;20498;-86
2021/08/11 05:47:30;;;;;;;2.55;2.45;;;19.20;66.30;;;;;;5035692;28;20482;-85
2021/08/11 05:49:56;;;;;;;2.72;2.53;;;19.20;66.30;;;;;;5033498;28;20402;-86
2021/08/11 05:52:22;;;;;;;2.80;2.70;;;19.30;66.30;;;;;;5033192;28;20033;-85
2021/08/11 05:54:49;;;;;;;3.15;2.97;;;19.40;66.20;;;;;;5034690;28;20021;-85
2021/08/11 05:57:16;;;;;;;2.90;2.78;;;19.50;66.00;;;;;;5032255;28;20040;-86
2021/08/11 05:59:42;;;;;;;2.70;2.60;;;19.60;65.80;;;;;;5030987;28;20057;-85
2021/08/11 06:02:08;;;;;;;2.75;2.65;;;19.70;65.80;;;;;;5035679;28;20044;-86
2021/08/11 06:04:35;;;;;;;2.45;2.35;;;19.70;65.80;;;;;;5032417;28;20048;-85
2021/08/11 06:07:01;;;;;;;2.70;2.60;;;19.70;65.80;;;;;;5040525;28;20033;-85
2021/08/11 06:09:28;;;;;;;2.90;2.80;;;19.80;65.80;;;;;;5030636;28;20025;-85
2021/08/11 06:11:54;;;;;;;2.70;2.60;;;19.70;65.70;;;;;;5030760;28;20036;-85
2021/08/11 06:14:20;;;;;;;3.20;3.10;;;19.80;65.80;;;;;;5036512;28;20379;-85
2021/08/11 06:16:46;;;;;;;2.63;2.53;;;19.70;65.80;;;;;;5031907;28;20041;-85
2021/08/11 06:19:12;;;;;;;2.50;2.40;;;19.80;65.80;;;;;;5034081;28;20405;-85
2021/08/11 06:21:38;;;;;;;2.65;2.55;;;19.90;65.80;;;;;;5033929;28;20500;-84
2021/08/11 06:24:05;;;;;;;3.30;3.10;;;19.90;65.60;;;;;;5030540;28;20041;-85
2021/08/11 06:26:31;;;;;;;3.17;3.00;;;20.00;65.50;;;;;;5034712;28;20037;-86
2021/08/11 06:28:57;;;;;;;2.42;2.33;;;20.10;65.50;;;;;;5037867;28;20041;-85
2021/08/11 06:31:24;;;;;;;3.00;2.90;;;20.20;65.40;;;;;;5036037;28;20030;-85
2021/08/11 06:33:51;;;;;;;3.63;3.42;;;20.30;65.20;;;;;;5036664;28;20497;-81
2021/08/11 06:36:17;;;;;;;2.83;2.72;;;20.40;64.90;;;;;;5033592;28;20049;-85
2021/08/11 06:38:44;;;;;;;3.15;3.05;;;20.60;64.70;;;;;;5034703;28;20022;-85
2021/08/11 06:41:15;;;;;;;3.13;3.03;;;20.70;64.40;;;;;;5039482;28;20032;-84
2021/08/11 06:43:42;;;;;;;;;;;20.90;64.20;;;;;;5035579;28;20025;-85
2021/08/11 06:46:08;;;;;;;3.90;3.70;;;21.20;63.80;;;;;;5036933;28;20366;-85
2021/08/11 06:48:36;;;;;;;6.03;3.70;;;21.30;63.30;;;;;;5019577;28;20033;-85
2021/08/11 06:51:06;;;;;;;3.80;3.60;;;21.40;63.10;;;;;;5033316;28;20037;-85
2021/08/11 06:53:32;;;;;;;4.10;3.90;;;21.50;63.10;;;;;;5037265;28;20422;-85
2021/08/11 06:55:58;;;;;;;4.03;3.83;;;21.50;63.00;;;;;;5038013;28;20044;-86
2021/08/11 06:58:24;;;;;;;4.45;4.25;;;21.60;63.00;;;;;;5044512;28;20037;-85
2021/08/11 07:00:52;;;;;;;5.60;5.30;;;21.80;63.00;;;;;;5045679;28;20040;-85
2021/08/11 07:03:19;;;;;;;5.53;5.30;;;21.90;62.70;;;;;;5033787;28;20364;-85
2021/08/11 07:05:45;;;;;;;5.03;4.78;;;22.10;62.50;;;;;;5016785;28;20042;-83
2021/08/11 07:08:12;;;;;;;4.13;3.92;;;22.30;62.20;;;;;;5038931;28;20033;-85
2021/08/11 07:10:38;;;;;;;3.90;3.70;;;22.40;61.80;;;;;;5034529;28;20030;-85
2021/08/11 07:13:04;;;;;;;4.60;4.40;;;22.60;61.50;;;;;;5019350;28;20022;-85
2021/08/11 07:15:31;;;;;;;4.60;4.40;;;22.80;61.20;;;;;;5036364;28;20514;-85
2021/08/11 07:17:58;;;;;;;5.00;4.65;;;23.00;61.00;;;;;;5031367;28;20038;-85
2021/08/11 07:20:25;;;;;;;4.55;4.35;;;23.20;60.70;;;;;;5037565;28;20033;-86
2021/08/11 07:22:51;;;;;;;5.38;5.05;;;23.20;60.40;;;;;;5035379;28;20056;-86
2021/08/11 07:25:18;;;;;;;4.70;4.50;;;23.30;60.60;;;;;;5005238;28;20033;-85
2021/08/11 07:27:45;;;;;;;4.93;4.68;;;23.40;60.50;;;;;;5036786;28;20037;-85
2021/08/11 07:30:11;;;;;;;4.95;4.72;;;23.50;60.30;;;;;;5030153;28;20049;-85
2021/08/11 07:32:37;;;;;;;5.35;5.10;;;23.60;60.10;;;;;;5018714;28;20034;-83
2021/08/11 07:35:04;;;;;;;4.75;4.45;;;23.70;59.80;;;;;;5050963;28;20025;-86
2021/08/11 07:37:30;;;;;;;4.65;4.45;;;23.70;59.80;;;;;;5033277;28;20040;-84
2021/08/11 07:39:57;;;;;;;4.70;4.50;;;23.70;60.00;;;;;;5034241;28;20030;-85
2021/08/11 07:42:23;;;;;;;4.90;4.70;;;23.80;60.00;;;;;;5035241;28;20021;-85
2021/08/11 07:44:49;;;;;;;4.90;4.70;;;23.90;59.90;;;;;;5031457;28;20403;-85
2021/08/11 07:47:15;;;;;;;5.95;5.65;;;24.10;59.70;;;;;;5038025;28;20057;-86
2021/08/11 07:49:41;;;;;;;6.00;5.70;;;24.20;59.50;;;;;;5035495;28;20017;-85
2021/08/11 07:52:07;;;;;;;5.90;5.50;;;24.30;59.20;;;;;;5036492;28;20025;-83
2021/08/11 07:54:33;;;;;;;5.97;5.68;;;24.60;59.10;;;;;;5036417;28;20032;-85
2021/08/11 07:56:59;;;;;;;6.28;5.97;;;24.70;58.80;;;;;;5016214;28;20033;-86
2021/08/11 07:59:25;;;;;;;7.05;6.75;;;24.90;58.60;;;;;;5037853;28;20045;-85
2021/08/11 08:01:51;;;;;;;6.55;6.20;;;24.90;58.40;;;;;;5034187;28;20033;-86
2021/08/11 08:04:17;;;;;;;6.43;6.13;;;24.90;58.40;;;;;;5035042;28;20037;-84
2021/08/11 08:06:43;;;;;;;7.13;6.82;;;24.90;58.40;;;;;;5036234;28;20040;-86
2021/08/11 08:09:10;;;;;;;7.40;7.10;;;25.10;58.30;;;;;;5032964;28;20048;-86
2021/08/11 08:11:36;;;;;;;6.82;6.53;;;25.20;58.10;;;;;;5034758;28;20036;-85
2021/08/11 08:14:02;;;;;;;6.65;6.35;;;25.30;58.00;;;;;;5036438;28;20497;-86
2021/08/11 08:16:28;;;;;;;8.25;7.85;;;25.40;57.80;;;;;;5033337;28;20053;-86
2021/08/11 08:18:54;;;;;;;6.82;6.53;;;25.40;57.80;;;;;;5018287;28;20029;-86
2021/08/11 08:21:20;;;;;;;5.90;5.60;;;25.50;57.80;;;;;;5033985;28;20521;-86
2021/08/11 08:23:46;;;;;;;6.47;6.18;;;25.50;57.60;;;;;;5033114;28;20203;-84
2021/08/11 08:26:12;;;;;;;8.10;7.70;;;25.40;57.70;;;;;;5037997;28;20055;-86
2021/08/11 08:28:38;;;;;;;6.22;5.93;;;25.40;57.80;;;;;;5032939;28;20108;-85
2021/08/11 08:31:04;;;;;;;5.93;5.63;;;25.40;57.70;;;;;;5035189;28;20026;-86
2021/08/11 08:33:30;;;;;;;7.72;7.35;;;25.50;57.60;;;;;;5034963;28;20051;-85
2021/08/11 08:35:56;;;;;;;5.93;5.63;;;25.50;57.50;;;;;;5031608;28;20402;-86
2021/08/11 08:38:23;;;;;;;5.28;5.07;;;25.60;57.50;;;;;;5037406;28;20036;-86
2021/08/11 08:40:50;;;;;;;6.97;6.57;;;25.70;57.40;;;;;;5034029;28;20033;-86
2021/08/11 08:43:16;;;;;;;8.15;7.75;;;25.80;57.30;;;;;;5033941;28;20029;-86
2021/08/11 08:45:44;;;;;;;10.38;9.88;;;25.90;57.10;;;;;;5033683;28;20025;-85
2021/08/11 08:48:10;;;;;;;8.10;7.70;;;26.00;57.00;;;;;;5030983;28;20044;-88
2021/08/11 08:50:37;;;;;;;7.60;7.28;;;26.30;56.80;;;;;;5033507;28;20040;-86
2021/08/11 08:53:03;;;;;;;9.25;8.60;;;26.50;56.40;;;;;;5033465;28;20038;-86
2021/08/11 08:55:30;;;;;;;8.32;7.93;;;26.70;56.30;;;;;;5017459;28;20041;-87
2021/08/11 08:57:56;;;;;;;8.23;7.82;;;26.80;56.10;;;;;;5016249;28;20025;-87
2021/08/11 09:00:23;;;;;;;8.68;8.27;;;26.90;55.90;;;;;;5030360;28;20394;-86
2021/08/11 09:02:49;;;;;;;8.60;8.20;;;27.00;56.00;;;;;;5046982;28;20028;-84
2021/08/11 09:05:15;;;;;;;8.60;8.07;;;27.10;55.90;;;;;;5018826;28;20033;-85
2021/08/11 09:07:46;;;;;;;8.60;8.20;;;27.30;55.70;;;;;;5033719;28;20052;-86
2021/08/11 09:10:25;;;;;;;8.05;7.65;;;27.50;55.50;;;;;;5015954;28;20514;-86
2021/08/11 09:12:54;;;;;;;7.68;7.28;;;27.50;55.80;;;;;;5033667;28;20497;-85
2021/08/11 09:15:47;;;;;;;8.95;8.55;;;27.40;56.00;;;;;;5014676;28;20398;-86
2021/08/11 09:18:16;;;;;;;8.88;8.48;;;27.40;55.50;;;;;;5014093;28;20045;-86
2021/08/11 09:20:44;;;;;;;8.63;8.23;;;27.60;55.30;;;;;;5033805;28;20459;-86
2021/08/11 09:23:11;;;;;;;8.07;7.50;;;27.80;55.00;;;;;;5033145;28;20505;-85
2021/08/11 09:25:55;;;;;;;7.68;7.30;;;27.80;54.70;;;;;;5034628;28;20042;-85
2021/08/11 09:28:21;;;;;;;7.93;7.53;;;27.70;54.90;;;;;;5016861;28;20057;-85
2021/08/11 09:30:47;;;;;;;8.40;7.95;;;27.50;55.10;;;;;;5016658;28;20486;-86
2021/08/11 09:33:14;;;;;;;8.27;7.88;;;27.50;55.30;;;;;;5030699;28;20037;-85
2021/08/11 09:35:40;;;;;;;8.80;8.40;;;27.60;55.20;;;;;;5033799;28;20017;-86
2021/08/11 09:38:12;;;;;;;8.15;7.75;;;27.90;54.90;;;;;;5035954;28;20044;-87
2021/08/11 09:40:39;;;;;;;7.95;7.55;;;28.10;54.50;;;;;;5033065;28;20033;-87
2021/08/11 09:43:06;;;;;;;8.48;8.07;;;28.30;54.30;;;;;;5033505;28;20073;-86
2021/08/11 09:45:42;;;;;;;8.68;8.27;;;28.30;54.30;;;;;;5032461;28;20040;-87
2021/08/11 09:48:08;;;;;;;9.65;9.25;;;28.40;54.20;;;;;;5015331;28;20037;-85
2021/08/11 09:50:38;;;;;;;8.70;8.30;;;28.50;54.10;;;;;;5033795;28;20502;-85
2021/08/11 09:53:04;;;;;;;8.85;8.45;;;28.70;53.90;;;;;;5035544;28;20036;-86
2021/08/11 09:55:35;;;;;;;9.73;9.25;;;28.90;53.50;;;;;;5033267;28;20037;-86
2021/08/11 09:58:01;;;;;;;9.45;9.05;;;29.10;53.60;;;;;;5016101;28;20026;-87
2021/08/11 10:00:38;;;;;;;9.23;8.82;;;29.20;53.50;;;;;;5032188;28;20489;-87
2021/08/11 10:03:04;;;;;;;9.98;9.48;;;29.20;53.20;;;;;;5013166;28;20398;-86
2021/08/11 10:05:37;;;;;;;9.23;8.82;;;29.20;53.10;;;;;;5039944;28;20386;-86
2021/08/11 10:08:04;;;;;;;10.38;9.77;;;29.20;53.30;;;;;;5038933;28;20116;-86
2021/08/11 10:10:44;;;;;;;9.50;9.10;;;29.20;53.20;;;;;;5037942;28;20029;-86
2021/08/11 10:13:10;;;;;;;8.65;8.25;;;29.40;53.00;;;;;;5038183;28;20040;-87
2021/08/11 10:15:36;;;;;;;11.05;10.55;;;29.70;52.90;;;;;;5036579;28;20025;-86
2021/08/11 10:18:02;;;;;;;9.73;9.27;;;29.70;52.60;;;;;;5032228;28;20038;-87
2021/08/11 10:20:28;;;;;;;10.75;10.25;;;29.70;52.60;;;;;;5038661;28;20037;-86
2021/08/11 10:22:54;;;;;;;9.25;8.85;;;29.70;52.60;;;;;;5035768;28;20033;-86
2021/08/11 10:25:21;;;;;;;8.50;8.10;;;29.70;52.60;;;;;;5035131;28;20030;-86
2021/08/11 10:27:47;;;;;;;10.43;9.85;;;29.80;52.60;;;;;;5036728;28;20041;-86
2021/08/11 10:30:14;;;;;;;9.88;9.45;;;29.90;52.40;;;;;;5017160;28;20026;-86
2021/08/11 10:32:41;;;;;;;10.38;9.88;;;29.80;52.30;;;;;;5035979;28;20030;-86
2021/08/11 10:35:08;;;;;;;9.25;8.80;;;29.80;52.40;;;;;;5052467;28;20042;-86
2021/08/11 10:37:35;;;;;;;10.52;10.02;;;29.80;52.40;;;;;;5036676;28;20044;-86
2021/08/11 10:40:03;;;;;;;14.15;13.45;;;29.90;52.30;;;;;;5035760;28;20037;-87
2021/08/11 10:42:29;;;;;;;12.07;11.48;;;30.00;52.10;;;;;;5037061;28;20040;-86
2021/08/11 10:44:59;;;;;;;8.50;8.10;;;30.00;52.10;;;;;;5032660;28;20017;-86
2021/08/11 10:47:32;;;;;;;9.32;8.93;;;30.00;52.10;;;;;;5037980;28;20044;-87
2021/08/11 10:50:06;;;;;;;17.55;16.75;;;30.30;52.00;;;;;;5035871;28;20037;-87
2021/08/11 10:52:32;;;;;;;15.30;14.60;;;30.50;51.60;;;;;;5019573;28;20037;-86
2021/08/11 10:54:59;;;;;;;11.95;11.40;;;30.70;51.40;;;;;;5019535;28;20030;-87
2021/08/11 10:57:34;;;;;;;12.48;11.75;;;30.80;51.20;;;;;;5035165;28;20493;-87
2021/08/11 11:00:07;;;;;;;11.05;10.55;;;30.90;51.10;;;;;;5017074;28;20050;-86
2021/08/11 11:02:40;;;;;;;11.65;11.10;;;31.00;51.00;;;;;;5046368;28;20033;-87
2021/08/11 11:05:33;;;;;;;9.75;9.27;;;31.00;50.80;;;;;;5036830;28;20053;-86
2021/08/11 11:08:08;;;;;;;11.63;11.02;;;31.00;50.80;;;;;;5029393;28;20076;-87
2021/08/11 11:10:35;;;;;;;10.55;10.05;;;30.90;50.80;;;;;;5037093;28;20045;-86
2021/08/11 11:13:21;;;;;;;11.52;10.93;;;30.80;51.40;;;;;;5019233;28;20025;-87
2021/08/11 11:15:47;;;;;;;9.65;9.25;;;30.70;51.00;;;;;;5034984;28;20041;-86
2021/08/11 11:18:21;;;;;;;11.60;11.10;;;30.60;51.10;;;;;;5034320;28;20022;-86
2021/08/11 11:20:47;;;;;;;11.43;10.85;;;30.60;51.00;;;;;;5033278;28;20041;-86
2021/08/11 11:23:34;;;;;;;11.38;10.88;;;30.80;50.90;;;;;;5038598;28;20041;-86
2021/08/11 11:26:07;;;;;;;10.15;9.65;;;30.90;50.60;;;;;;5038149;28;20041;-86
2021/08/11 11:29:03;;;;;;;9.77;9.35;;;31.00;50.50;;;;;;5039570;28;20054;-86
2021/08/11 11:31:36;;;;;;;8.50;8.00;;;31.20;50.20;;;;;;5036449;28;20037;-86
2021/08/11 11:34:32;;;;;;;9.00;8.52;;;31.30;50.00;;;;;;5034572;28;20048;-85
2021/08/11 11:36:58;;;;;;;9.65;9.13;;;31.40;49.90;;;;;;5036348;28;20034;-86
2021/08/11 11:39:25;;;;;;;9.10;8.70;;;31.30;49.80;;;;;;5035605;28;20470;-86
2021/08/11 11:42:11;;;;;;;9.43;8.57;;;31.20;50.00;;;;;;5032274;28;20064;-86
2021/08/11 11:44:58;;;;;;;8.40;8.00;;;31.30;49.80;;;;;;5047081;28;20025;-87
2021/08/11 11:47:37;;;;;;;8.70;8.30;;;31.40;49.70;;;;;;5038104;28;20044;-87
2021/08/11 11:50:19;;;;;;;8.57;8.15;;;31.60;49.40;;;;;;5045312;28;20033;-86
2021/08/11 11:52:57;;;;;;;8.48;8.07;;;31.60;49.20;;;;;;5037839;28;20033;-88
2021/08/11 11:55:41;;;;;;;8.40;8.00;;;31.50;49.20;;;;;;5036686;28;20033;-86
2021/08/11 11:58:14;;;;;;;8.10;7.72;;;31.40;49.20;;;;;;5034032;28;20032;-86
2021/08/11 12:00:41;;;;;;;6.97;6.68;;;31.10;49.50;;;;;;5030975;28;20048;-86
2021/08/11 12:03:07;;;;;;;8.65;8.25;;;31.00;49.80;;;;;;5046143;28;20375;-86
2021/08/11 12:05:52;;;;;;;7.78;7.35;;;31.00;49.60;;;;;;5037028;28;20032;-84
2021/08/11 12:08:20;;;;;;;7.75;7.43;;;31.30;49.50;;;;;;5057557;28;20416;-87
2021/08/11 12:11:09;;;;;;;7.70;7.28;;;31.40;49.10;;;;;;5037450;28;20411;-87
2021/08/11 12:13:49;;;;;;;7.90;7.50;;;31.60;48.90;;;;;;5035820;28;20045;-86
2021/08/11 12:16:16;;;;;;;7.10;6.80;;;31.60;48.70;;;;;;5018745;28;20030;-87
2021/08/11 12:18:45;;;;;;;7.20;6.90;;;31.70;48.70;;;;;;5036057;28;20470;-86
2021/08/11 12:21:11;;;;;;;7.05;6.75;;;31.80;48.50;;;;;;5030912;28;20038;-88
2021/08/11 12:23:38;;;;;;;7.28;6.88;;;31.70;48.50;;;;;;5018128;28;20386;-86
2021/08/11 12:26:06;;;;;;;6.68;6.38;;;31.60;48.50;;;;;;5034927;28;20239;-87
2021/08/11 12:28:40;;;;;;;12.07;6.85;;;31.60;48.70;;;;;;5038459;28;20036;-87
2021/08/11 12:31:33;;;;;;;7.13;6.82;;;31.70;48.60;;;;;;5024449;28;20044;-86
2021/08/11 12:34:01;;;;;;;7.13;6.82;;;31.70;48.30;;;;;;5031371;28;20040;-87
2021/08/11 12:36:29;;;;;;;7.90;7.50;;;31.80;48.20;;;;;;5013871;28;20026;-86
2021/08/11 12:39:12;;;;;;;7.72;7.40;;;31.90;48.10;;;;;;5046176;28;20029;-87
2021/08/11 12:41:45;;;;;;;7.32;7.03;;;32.10;47.90;;;;;;5044528;28;20025;-87
2021/08/11 12:44:13;;;;;;;7.03;6.72;;;32.20;47.80;;;;;;5050850;28;20053;-87
2021/08/11 12:46:45;;;;;;;7.35;7.05;;;32.20;47.70;;;;;;5035002;28;20041;-86
2021/08/11 12:49:15;;;;;;;7.20;6.90;;;32.20;47.60;;;;;;5029271;28;20494;-87
2021/08/11 12:51:42;;;;;;;7.38;7.05;;;32.00;48.20;;;;;;5041170;28;20034;-86
2021/08/11 12:54:08;;;;;;;6.72;6.28;;;32.00;47.60;;;;;;5045684;28;20026;-85